Time;durP1;ratioP1;P1;durP2;ratioP2;P2;SDS_P1;SDS_P2;PMS_P1;PMS_P2;Temp;Humidity;BMP_temperature;BMP_pressure;BME280_temperature;BME280_humidity;BME280_pressure;Samples;Min_cycle;Max_cycle;Signal;HPM_P1;HPM_P2
2023/07/09 00:01:33;;;;;;;;;;;;;;;15.71;89.50;95652.34;5093911;28;1126;-52
2023/07/09 00:03:59;;;;;;;;;;;;;;;15.62;89.48;95656.94;5093701;28;1045;-52
2023/07/09 00:06:25;;;;;;;;;;;;;;;15.90;89.34;95655.59;5093684;28;1909;-51
2023/07/09 00:08:52;;;;;;;;;;;;;;;15.85;89.31;95658.00;5093767;28;1040;-52
2023/07/09 00:11:18;;;;;;;;;;;;;;;15.84;88.93;95654.47;5092458;28;1238;-52
2023/07/09 00:13:44;;;;;;;;;;;;;;;15.77;89.37;95665.13;5093551;28;968;-52
2023/07/09 00:16:12;;;;;;;;;;;;;;;15.71;89.77;95665.00;5093725;28;956;-52
2023/07/09 00:18:38;;;;;;;;;;;;;;;15.75;89.93;95658.25;5093562;28;1104;-52
2023/07/09 00:21:05;;;;;;;;;;;;;;;15.60;89.51;95666.25;5093708;28;1015;-52
2023/07/09 00:23:31;;;;;;;;;;;;;;;15.52;90.69;95664.44;5093508;28;972;-52
2023/07/09 00:25:57;;;;;;;;;;;;;;;15.50;89.75;95662.94;5093059;28;2000;-52
2023/07/09 00:28:24;;;;;;;;;;;;;;;15.35;90.26;95666.41;5093400;28;1010;-52
2023/07/09 00:30:50;;;;;;;;;;;;;;;15.34;89.90;95667.41;5093669;28;1080;-52
2023/07/09 00:33:18;;;;;;;;;;;;;;;15.33;90.33;95663.06;5093317;28;1104;-52
2023/07/09 00:35:50;;;;;;;;;;;;;;;15.18;91.09;95664.84;5093391;28;1104;-52
2023/07/09 00:38:21;;;;;;;;;;;;;;;15.11;92.06;95663.88;5093374;28;1981;-52
2023/07/09 00:40:48;;;;;;;;;;;;;;;15.38;91.06;95660.66;5093363;28;1063;-52
2023/07/09 00:43:16;;;;;;;;;;;;;;;15.34;90.56;95661.19;5093473;28;1075;-52
2023/07/09 00:45:42;;;;;;;;;;;;;;;15.20;90.91;95663.63;5093490;28;1090;-51
2023/07/09 00:48:12;;;;;;;;;;;;;;;15.28;90.24;95654.66;5093198;28;1902;-52
2023/07/09 00:50:46;;;;;;;;;;;;;;;15.30;90.02;95657.19;5093386;28;957;-51
2023/07/09 00:53:17;;;;;;;;;;;;;;;15.29;89.94;95653.66;5093149;28;1991;-51
2023/07/09 00:55:45;;;;;;;;;;;;;;;15.34;90.08;95645.84;5093227;28;1120;-52
2023/07/09 00:58:15;;;;;;;;;;;;;;;15.32;89.85;95644.38;5093305;28;1045;-52
2023/07/09 01:00:46;;;;;;;;;;;;;;;15.03;89.90;95644.03;5097286;28;1281;-52
2023/07/09 01:03:27;;;;;;;;;;;;;;;14.80;91.47;95649.38;5097062;28;1041;-51
2023/07/09 01:05:55;;;;;;;;;;;;;;;14.54;93.07;95644.22;5096957;28;1910;-51
2023/07/09 01:08:21;;;;;;;;;;;;;;;14.70;93.11;95637.97;5097157;28;1140;-52
2023/07/09 01:10:47;;;;;;;;;;;;;;;14.68;92.15;95639.16;5097000;28;1968;-52
2023/07/09 01:13:14;;;;;;;;;;;;;;;14.76;91.73;95642.66;5096951;28;1145;-52
2023/07/09 01:15:40;;;;;;;;;;;;;;;14.93;90.32;95638.03;5096910;28;1115;-52
2023/07/09 01:18:08;;;;;;;;;;;;;;;14.82;91.29;95633.03;5096875;28;1150;-52
2023/07/09 01:20:34;;;;;;;;;;;;;;;14.93;90.27;95632.66;5096647;28;981;-52
2023/07/09 01:23:00;;;;;;;;;;;;;;;15.03;90.14;95633.25;5096721;28;1045;-51
2023/07/09 01:25:28;;;;;;;;;;;;;;;15.07;90.20;95632.91;5096432;28;1569;-51
2023/07/09 01:27:54;;;;;;;;;;;;;;;15.01;89.65;95629.06;5096493;28;1906;-52
2023/07/09 01:30:23;;;;;;;;;;;;;;;15.00;90.34;95630.91;5096514;28;1891;-52
2023/07/09 01:32:50;;;;;;;;;;;;;;;14.83;90.72;95623.94;5096496;28;1005;-52
2023/07/09 01:35:17;;;;;;;;;;;;;;;14.82;91.60;95624.97;5096690;28;1035;-51
2023/07/09 01:37:44;;;;;;;;;;;;;;;14.67;91.45;95629.41;5096641;28;1265;-51
2023/07/09 01:40:12;;;;;;;;;;;;;;;14.39;92.86;95635.19;5096288;28;1992;-52
2023/07/09 01:42:38;;;;;;;;;;;;;;;14.62;92.93;95635.31;5096530;28;1032;-52
2023/07/09 01:45:04;;;;;;;;;;;;;;;14.70;91.63;95637.13;5096412;28;984;-51
2023/07/09 01:47:31;;;;;;;;;;;;;;;14.62;91.61;95648.75;5096081;28;2006;-51
2023/07/09 01:49:57;;;;;;;;;;;;;;;14.49;91.56;95646.56;5096446;28;969;-51
2023/07/09 01:52:24;;;;;;;;;;;;;;;14.47;93.01;95642.41;5096070;28;1033;-52
2023/07/09 01:54:50;;;;;;;;;;;;;;;14.55;91.77;95643.22;5096288;28;972;-52
2023/07/09 01:57:22;;;;;;;;;;;;;;;14.57;91.87;95649.28;5096105;28;969;-52
2023/07/09 01:59:50;;;;;;;;;;;;;;;14.55;92.50;95648.59;5096150;28;1059;-52
2023/07/09 02:02:19;;;;;;;;;;;;;;;14.53;90.88;95650.63;5095884;28;957;-51
2023/07/09 02:04:46;;;;;;;;;;;;;;;14.27;91.96;95650.03;5095913;28;1049;-52
2023/07/09 02:07:12;;;;;;;;;;;;;;;14.16;92.23;95645.84;5095715;28;1968;-51
2023/07/09 02:09:38;;;;;;;;;;;;;;;14.18;93.59;95652.72;5095464;28;1033;-52
2023/07/09 02:12:04;;;;;;;;;;;;;;;14.22;92.92;95654.06;5095820;28;1059;-52
2023/07/09 02:14:30;;;;;;;;;;;;;;;14.09;92.54;95642.16;5095702;28;1195;-52
2023/07/09 02:16:56;;;;;;;;;;;;;;;14.16;93.32;95646.69;5095665;28;1036;-52
2023/07/09 02:19:22;;;;;;;;;;;;;;;14.10;92.79;95650.06;5095779;28;1040;-52
2023/07/09 02:21:48;;;;;;;;;;;;;;;13.85;93.73;95650.09;5095832;28;980;-52
2023/07/09 02:24:14;;;;;;;;;;;;;;;13.76;93.88;95651.09;5095410;28;1634;-51
2023/07/09 02:26:40;;;;;;;;;;;;;;;13.83;94.99;95652.09;5095200;28;1977;-52
2023/07/09 02:29:07;;;;;;;;;;;;;;;13.99;92.71;95656.63;5095490;28;1032;-52
2023/07/09 02:31:33;;;;;;;;;;;;;;;14.03;93.14;95660.63;5095281;28;1039;-51
2023/07/09 02:33:59;;;;;;;;;;;;;;;13.93;92.88;95665.38;5095597;28;973;-51
2023/07/09 02:36:25;;;;;;;;;;;;;;;13.74;93.66;95671.94;5095409;28;977;-51
2023/07/09 02:38:51;;;;;;;;;;;;;;;13.91;94.54;95663.88;5095445;28;989;-52
2023/07/09 02:41:17;;;;;;;;;;;;;;;14.09;92.95;95660.97;5095150;28;1849;-52
2023/07/09 02:43:43;;;;;;;;;;;;;;;14.05;92.59;95668.53;5095275;28;1054;-51
2023/07/09 02:46:09;;;;;;;;;;;;;;;13.73;93.95;95670.22;5094976;28;1905;-52
2023/07/09 02:48:36;;;;;;;;;;;;;;;13.29;94.76;95644.47;5095094;28;1032;-52
2023/07/09 02:51:01;;;;;;;;;;;;;;;13.50;94.62;95658.47;5095176;28;1023;-52
2023/07/09 02:53:27;;;;;;;;;;;;;;;13.88;93.97;95665.03;5094822;28;1144;-52
2023/07/09 02:55:53;;;;;;;;;;;;;;;14.02;92.18;95671.59;5095011;28;1032;-52
2023/07/09 02:58:19;;;;;;;;;;;;;;;14.23;91.60;95673.75;5094880;28;968;-52
2023/07/09 03:00:52;;;;;;;;;;;;;;;14.35;91.13;95677.72;5094785;28;1130;-52
2023/07/09 03:03:19;;;;;;;;;;;;;;;14.24;91.35;95681.63;5095030;28;1063;-52
2023/07/09 03:05:45;;;;;;;;;;;;;;;13.99;91.52;95686.19;5094946;28;977;-52
2023/07/09 03:08:11;;;;;;;;;;;;;;;13.86;93.28;95683.16;5094737;28;1985;-52
2023/07/09 03:10:37;;;;;;;;;;;;;;;14.00;92.39;95684.34;5094660;28;1056;-53
2023/07/09 03:13:03;;;;;;;;;;;;;;;14.00;92.56;95687.03;5094648;28;980;-52
2023/07/09 03:15:30;;;;;;;;;;;;;;;13.84;93.17;95696.78;5094492;28;1099;-52
2023/07/09 03:17:56;;;;;;;;;;;;;;;13.53;94.08;95695.78;5094737;28;1071;-52
2023/07/09 03:20:22;;;;;;;;;;;;;;;13.45;95.21;95699.28;5094594;28;1027;-52
2023/07/09 03:22:48;;;;;;;;;;;;;;;13.66;94.33;95696.94;5093935;28;1028;-52
2023/07/09 03:25:14;;;;;;;;;;;;;;;13.85;93.24;95701.16;5093934;28;1967;-52
2023/07/09 03:27:40;;;;;;;;;;;;;;;13.87;93.19;95701.00;5094022;28;1984;-52
2023/07/09 03:30:07;;;;;;;;;;;;;;;13.71;93.51;95698.28;5094099;28;1038;-52
2023/07/09 03:32:33;;;;;;;;;;;;;;;13.51;94.72;95695.94;5094318;28;1016;-52
2023/07/09 03:34:59;;;;;;;;;;;;;;;13.64;94.64;95695.44;5094307;28;1023;-52
2023/07/09 03:37:25;;;;;;;;;;;;;;;13.76;94.02;95686.03;5094100;28;1031;-52
2023/07/09 03:39:51;;;;;;;;;;;;;;;13.90;94.33;95683.69;5094063;28;968;-52
2023/07/09 03:42:17;;;;;;;;;;;;;;;13.81;94.64;95690.88;5093658;28;1096;-52
2023/07/09 03:44:43;;;;;;;;;;;;;;;13.73;94.75;95693.59;5093943;28;1955;-52
2023/07/09 03:47:09;;;;;;;;;;;;;;;13.82;95.09;95688.03;5093793;28;1968;-52
2023/07/09 03:49:35;;;;;;;;;;;;;;;13.92;95.48;95689.72;5094016;28;1243;-52
2023/07/09 03:52:01;;;;;;;;;;;;;;;14.29;95.08;95691.03;5093870;28;1048;-52
2023/07/09 03:54:27;;;;;;;;;;;;;;;14.54;94.40;95692.66;5093836;28;1020;-52
2023/07/09 03:56:53;;;;;;;;;;;;;;;14.80;93.28;95694.31;5093796;28;964;-52
2023/07/09 03:59:19;;;;;;;;;;;;;;;15.02;92.32;95695.38;5093618;28;1043;-52
2023/07/09 04:01:45;;;;;;;;;;;;;;;15.04;92.80;95701.41;5092662;28;1037;-52
2023/07/09 04:04:12;;;;;;;;;;;;;;;15.02;91.39;95704.31;5093545;28;1225;-52
2023/07/09 04:06:38;;;;;;;;;;;;;;;15.32;89.95;95696.38;5093506;28;1997;-52
2023/07/09 04:09:04;;;;;;;;;;;;;;;15.52;90.50;95696.78;5093657;28;1048;-52
2023/07/09 04:11:30;;;;;;;;;;;;;;;15.55;91.20;95696.41;5093575;28;1025;-53
2023/07/09 04:13:56;;;;;;;;;;;;;;;15.41;92.53;95695.31;5093496;28;989;-52
2023/07/09 04:16:22;;;;;;;;;;;;;;;15.27;92.83;95700.63;5093599;28;1048;-53
2023/07/09 04:18:48;;;;;;;;;;;;;;;15.51;92.76;95688.88;5093478;28;2002;-53
2023/07/09 04:21:14;;;;;;;;;;;;;;;15.95;89.57;95690.94;5093490;28;1001;-53
2023/07/09 04:23:40;;;;;;;;;;;;;;;16.14;91.93;95703.06;5093390;28;1088;-52
2023/07/09 04:26:09;;;;;;;;;;;;;;;16.14;91.35;95703.94;5092998;28;1917;-52
2023/07/09 04:28:35;;;;;;;;;;;;;;;16.32;91.78;95694.66;5093387;28;1017;-52
2023/07/09 04:31:00;;;;;;;;;;;;;;;16.70;86.66;95692.75;5093633;28;1016;-52
2023/07/09 04:33:26;;;;;;;;;;;;;;;17.03;84.65;95699.66;5095666;28;925;-52
2023/07/09 04:35:52;;;;;;;;;;;;;;;17.06;85.34;95704.69;5097532;28;1112;-52
2023/07/09 04:38:19;;;;;;;;;;;;;;;17.15;84.25;95695.44;5097608;28;981;-52
2023/07/09 04:40:46;;;;;;;;;;;;;;;17.35;85.96;95698.38;5097534;28;1083;-53
2023/07/09 04:43:12;;;;;;;;;;;;;;;17.37;83.02;95691.75;5097243;28;1109;-53
2023/07/09 04:45:38;;;;;;;;;;;;;;;17.44;85.78;95697.25;5097360;28;1973;-53
2023/07/09 04:48:04;;;;;;;;;;;;;;;17.58;82.54;95698.22;5097477;28;1906;-52
2023/07/09 04:50:30;;;;;;;;;;;;;;;17.58;79.45;95700.09;5097184;28;1107;-53
2023/07/09 04:52:56;;;;;;;;;;;;;;;17.70;81.79;95704.81;5097394;28;1045;-52
2023/07/09 04:55:22;;;;;;;;;;;;;;;17.72;83.57;95704.63;5097227;28;1027;-52
2023/07/09 04:57:48;;;;;;;;;;;;;;;17.70;82.90;95712.94;5097157;28;1001;-52
2023/07/09 05:00:15;;;;;;;;;;;;;;;17.80;85.65;95715.31;5097308;28;1043;-52
2023/07/09 05:02:41;;;;;;;;;;;;;;;17.94;84.77;95719.84;5097385;28;1071;-52
2023/07/09 05:05:07;;;;;;;;;;;;;;;18.19;84.01;95721.31;5097275;28;1142;-52
2023/07/09 05:07:33;;;;;;;;;;;;;;;18.45;83.04;95720.72;5097014;28;1986;-52
2023/07/09 05:09:59;;;;;;;;;;;;;;;18.75;80.78;95726.78;5097101;28;1032;-52
2023/07/09 05:12:28;;;;;;;;;;;;;;;18.69;80.26;95733.81;5096838;28;1016;-52
2023/07/09 05:14:56;;;;;;;;;;;;;;;18.87;79.18;95727.91;5096900;28;1076;-52
2023/07/09 05:17:23;;;;;;;;;;;;;;;18.94;78.84;95719.00;5097002;28;953;-52
2023/07/09 05:19:52;;;;;;;;;;;;;;;18.96;77.73;95725.06;5096969;28;1008;-52
2023/07/09 05:22:18;;;;;;;;;;;;;;;19.19;78.01;95725.59;5096805;28;1045;-51
2023/07/09 05:24:44;;;;;;;;;;;;;;;19.17;76.96;95724.97;5096573;28;1672;-52
2023/07/09 05:27:10;;;;;;;;;;;;;;;19.42;76.27;95727.16;5096244;28;1909;-52
2023/07/09 05:29:36;;;;;;;;;;;;;;;19.35;75.50;95724.44;5096629;28;1072;-52
2023/07/09 05:32:02;;;;;;;;;;;;;;;19.39;75.07;95725.69;5096743;28;1036;-52
2023/07/09 05:34:28;;;;;;;;;;;;;;;19.25;75.12;95723.94;5096607;28;1150;-52
2023/07/09 05:36:54;;;;;;;;;;;;;;;19.34;73.94;95720.03;5096478;28;1085;-52
2023/07/09 05:39:20;;;;;;;;;;;;;;;19.57;75.31;95714.28;5096360;28;1152;-52
2023/07/09 05:41:46;;;;;;;;;;;;;;;19.46;72.56;95717.56;5096332;28;1122;-52
2023/07/09 05:44:12;;;;;;;;;;;;;;;19.48;75.55;95719.06;5095767;28;969;-52
2023/07/09 05:46:38;;;;;;;;;;;;;;;19.43;74.32;95724.25;5096092;28;2029;-52
2023/07/09 05:49:05;;;;;;;;;;;;;;;19.43;74.58;95718.00;5096247;28;1096;-52
2023/07/09 05:51:31;;;;;;;;;;;;;;;19.56;71.59;95722.63;5096268;28;1004;-52
2023/07/09 05:53:57;;;;;;;;;;;;;;;19.57;72.72;95729.72;5096197;28;973;-52
2023/07/09 05:56:24;;;;;;;;;;;;;;;19.92;72.88;95725.06;5095951;28;1077;-52
2023/07/09 05:58:50;;;;;;;;;;;;;;;19.99;71.02;95716.91;5096010;28;1029;-52
2023/07/09 06:01:15;;;;;;;;;;;;;;;20.27;70.70;95720.28;5096099;28;973;-52
2023/07/09 06:03:42;;;;;;;;;;;;;;;20.35;71.75;95711.09;5095883;28;1140;-52
2023/07/09 06:06:08;;;;;;;;;;;;;;;20.62;72.77;95706.56;5096029;28;1969;-52
2023/07/09 06:08:34;;;;;;;;;;;;;;;20.71;70.98;95715.31;5095930;28;1129;-52
2023/07/09 06:11:04;;;;;;;;;;;;;;;20.93;70.64;95717.78;5095734;28;973;-52
2023/07/09 06:13:30;;;;;;;;;;;;;;;21.30;70.46;95712.66;5095920;28;1019;-52
2023/07/09 06:15:57;;;;;;;;;;;;;;;21.65;68.55;95718.63;5095901;28;973;-52
2023/07/09 06:18:24;;;;;;;;;;;;;;;21.75;67.35;95713.53;5095747;28;1071;-52
2023/07/09 06:20:51;;;;;;;;;;;;;;;21.72;66.88;95711.28;5095625;28;802;-52
2023/07/09 06:23:17;;;;;;;;;;;;;;;21.39;66.61;95711.38;5095518;28;1060;-52
2023/07/09 06:25:47;;;;;;;;;;;;;;;21.54;68.43;95706.53;5095139;28;1603;-53
2023/07/09 06:28:17;;;;;;;;;;;;;;;21.88;66.46;95707.19;5095597;28;1910;-52
2023/07/09 06:30:43;;;;;;;;;;;;;;;21.77;69.83;95705.16;5095433;28;1084;-52
2023/07/09 06:33:10;;;;;;;;;;;;;;;21.96;67.77;95706.94;5095548;28;1171;-52
2023/07/09 06:35:36;;;;;;;;;;;;;;;21.99;66.91;95703.78;5095411;28;1056;-52
2023/07/09 06:38:02;;;;;;;;;;;;;;;22.37;68.60;95713.81;5095298;28;1001;-52
2023/07/09 06:40:28;;;;;;;;;;;;;;;22.51;68.71;95705.53;5095458;28;1059;-52
2023/07/09 06:42:54;;;;;;;;;;;;;;;22.58;67.99;95709.03;5095424;28;1027;-52
2023/07/09 06:45:20;;;;;;;;;;;;;;;22.53;68.81;95706.13;5095292;28;1068;-52
2023/07/09 06:47:49;;;;;;;;;;;;;;;22.44;72.23;95697.41;5094914;28;1901;-52
2023/07/09 06:50:15;;;;;;;;;;;;;;;22.47;66.45;95707.03;5095048;28;957;-51
2023/07/09 06:52:41;;;;;;;;;;;;;;;22.32;68.90;95697.28;5094573;28;1121;-51
2023/07/09 06:55:07;;;;;;;;;;;;;;;22.57;69.27;95697.28;5094263;28;1209;-52
2023/07/09 06:57:33;;;;;;;;;;;;;;;22.71;66.39;95703.47;5093829;28;1056;-52
2023/07/09 06:59:59;;;;;;;;;;;;;;;22.86;66.92;95694.09;5094128;28;1021;-52
2023/07/09 07:02:25;;;;;;;;;;;;;;;23.04;67.21;95696.06;5094665;28;985;-52
2023/07/09 07:04:52;;;;;;;;;;;;;;;23.37;65.98;95706.56;5093603;28;1037;-51
2023/07/09 07:07:17;;;;;;;;;;;;;;;23.43;63.85;95697.50;5094122;28;1902;-52
2023/07/09 07:09:44;;;;;;;;;;;;;;;23.69;66.18;95690.84;5094468;28;1104;-52
2023/07/09 07:12:10;;;;;;;;;;;;;;;23.86;65.42;95695.69;5094619;28;1040;-52
2023/07/09 07:14:36;;;;;;;;;;;;;;;23.94;62.85;95695.38;5094613;28;1037;-52
2023/07/09 07:17:02;;;;;;;;;;;;;;;24.12;64.89;95698.06;5094492;28;1047;-52
2023/07/09 07:19:29;;;;;;;;;;;;;;;24.49;63.75;95688.84;5094756;28;949;-52
2023/07/09 07:21:55;;;;;;;;;;;;;;;24.65;60.83;95685.47;5094216;28;1088;-52
2023/07/09 07:24:22;;;;;;;;;;;;;;;24.67;55.88;95698.91;5093977;28;1241;-52
2023/07/09 07:26:48;;;;;;;;;;;;;;;24.51;55.71;95687.59;5094032;28;1996;-52
2023/07/09 07:29:14;;;;;;;;;;;;;;;24.57;55.29;95687.72;5094077;28;1076;-52
2023/07/09 07:31:40;;;;;;;;;;;;;;;24.77;57.16;95682.72;5094571;28;1051;-52
2023/07/09 07:34:06;;;;;;;;;;;;;;;24.98;58.97;95689.50;5094197;28;1017;-52
2023/07/09 07:36:32;;;;;;;;;;;;;;;25.17;56.03;95684.72;5094412;28;1096;-51
2023/07/09 07:38:58;;;;;;;;;;;;;;;25.12;54.41;95682.72;5093970;28;1868;-52
2023/07/09 07:41:25;;;;;;;;;;;;;;;25.24;57.02;95676.44;5094095;28;1044;-52
2023/07/09 07:43:51;;;;;;;;;;;;;;;25.40;53.30;95683.06;5094320;28;1199;-52
2023/07/09 07:46:17;;;;;;;;;;;;;;;25.58;55.46;95680.16;5093842;28;1905;-52
2023/07/09 07:48:43;;;;;;;;;;;;;;;25.63;49.84;95685.75;5093858;28;1029;-52
2023/07/09 07:51:09;;;;;;;;;;;;;;;25.59;50.42;95675.50;5093793;28;1123;-52
2023/07/09 07:53:35;;;;;;;;;;;;;;;25.68;51.69;95676.78;5093656;28;989;-52
2023/07/09 07:56:02;;;;;;;;;;;;;;;25.81;49.84;95671.03;5093698;28;1104;-52
2023/07/09 07:58:28;;;;;;;;;;;;;;;25.83;50.60;95659.81;5093737;28;1032;-52
2023/07/09 08:00:56;;;;;;;;;;;;;;;25.92;52.07;95663.88;5093806;28;1060;-52
2023/07/09 08:03:22;;;;;;;;;;;;;;;25.95;49.38;95663.34;5093550;28;1016;-52
2023/07/09 08:05:49;;;;;;;;;;;;;;;26.00;47.58;95668.13;5093659;28;1063;-52
2023/07/09 08:08:16;;;;;;;;;;;;;;;26.07;49.28;95658.66;5093039;28;1980;-52
2023/07/09 08:10:42;;;;;;;;;;;;;;;26.21;51.11;95650.13;5093561;28;1029;-52
2023/07/09 08:13:08;;;;;;;;;;;;;;;26.37;50.27;95651.22;5093675;28;981;-52
2023/07/09 08:15:34;;;;;;;;;;;;;;;26.51;48.27;95651.72;5093467;28;1043;-52
2023/07/09 08:18:00;;;;;;;;;;;;;;;26.61;48.19;95655.47;5093508;28;981;-52
2023/07/09 08:23:48;;;;;;;;;;;;;;;26.65;46.12;95653.94;5093607;28;691;-52
2023/07/09 08:26:14;;;;;;;;;;;;;;;26.75;48.13;95652.41;5092970;28;1921;-52
2023/07/09 08:28:41;;;;;;;;;;;;;;;26.88;48.00;95646.56;5093404;28;1151;-52
2023/07/09 08:31:08;;;;;;;;;;;;;;;26.80;46.95;95650.56;5093209;28;1147;-52
2023/07/09 08:33:34;;;;;;;;;;;;;;;26.85;45.53;95658.06;5093512;28;965;-52
2023/07/09 08:36:00;;;;;;;;;;;;;;;26.92;47.81;95641.41;5093317;28;1028;-52
2023/07/09 08:38:26;;;;;;;;;;;;;;;26.69;45.36;95651.47;5093145;28;1111;-52
2023/07/09 08:41:07;;;;;;;;;;;;;;;26.79;45.87;95651.66;5093228;28;1076;-52
2023/07/09 08:43:33;;;;;;;;;;;;;;;26.90;46.58;95655.41;5093023;28;1049;-52
2023/07/09 08:46:03;;;;;;;;;;;;;;;26.95;43.60;95660.94;5093489;28;949;-52
2023/07/09 08:48:31;;;;;;;;;;;;;;;26.95;43.33;95647.22;5093017;28;993;-52
2023/07/09 08:51:00;;;;;;;;;;;;;;;26.99;44.25;95650.28;5093103;28;1029;-52
2023/07/09 08:53:39;;;;;;;;;;;;;;;27.06;44.41;95649.03;5093006;28;1898;-52
2023/07/09 08:56:08;;;;;;;;;;;;;;;27.22;45.63;95651.97;5093103;28;1055;-52
2023/07/09 08:58:34;;;;;;;;;;;;;;;27.05;45.81;95647.38;5093409;28;1036;-52
2023/07/09 09:01:20;;;;;;;;;;;;;;;27.14;45.97;95650.50;5093095;28;1049;-52
2023/07/09 09:03:49;;;;;;;;;;;;;;;27.08;43.81;95648.78;5082376;28;1673;-52
2023/07/09 09:06:16;;;;;;;;;;;;;;;27.08;45.68;95646.03;5092910;28;1906;-52
2023/07/09 09:08:55;;;;;;;;;;;;;;;27.21;46.11;95642.91;5092944;28;1043;-52
2023/07/09 09:11:23;;;;;;;;;;;;;;;27.33;44.70;95640.06;5092934;28;928;-52
2023/07/09 09:13:54;;;;;;;;;;;;;;;27.46;48.64;95631.44;5092911;28;1048;-52
2023/07/09 09:16:27;;;;;;;;;;;;;;;27.45;46.02;95634.44;5092794;28;1028;-52
2023/07/09 09:18:55;;;;;;;;;;;;;;;27.30;44.17;95637.84;5092924;28;984;-52
2023/07/09 09:21:25;;;;;;;;;;;;;;;27.33;45.67;95642.00;5096297;28;1080;-51
2023/07/09 09:23:59;;;;;;;;;;;;;;;27.24;43.12;95638.81;5096853;28;965;-52
2023/07/09 09:26:33;;;;;;;;;;;;;;;27.39;42.49;95646.47;5093278;28;1922;-52
2023/07/09 09:28:59;;;;;;;;;;;;;;;27.36;41.90;95650.56;5096522;28;1049;-52
2023/07/09 09:31:29;;;;;;;;;;;;;;;27.34;42.30;95643.63;5096303;28;1092;-52
2023/07/09 09:33:55;;;;;;;;;;;;;;;27.52;43.06;95637.84;5096367;28;972;-52
2023/07/09 09:36:22;;;;;;;;;;;;;;;27.67;43.15;95642.69;5096518;28;1073;-52
2023/07/09 09:38:50;;;;;;;;;;;;;;;27.72;40.18;95651.00;5096428;28;1070;-52
2023/07/09 09:41:18;;;;;;;;;;;;;;;27.75;41.73;95641.38;5096171;28;1136;-52
2023/07/09 09:43:45;;;;;;;;;;;;;;;27.64;41.98;95640.44;5096555;28;1107;-52
2023/07/09 09:46:21;;;;;;;;;;;;;;;27.68;43.69;95632.50;5096042;28;1914;-52
2023/07/09 09:48:49;;;;;;;;;;;;;;;27.61;41.00;95640.97;5096103;28;1096;-52
2023/07/09 09:51:16;;;;;;;;;;;;;;;27.49;38.86;95638.38;5096153;28;981;-52
2023/07/09 09:53:50;;;;;;;;;;;;;;;27.34;39.48;95632.66;5095936;28;1088;-52
2023/07/09 09:56:24;;;;;;;;;;;;;;;27.42;38.76;95638.53;5095912;28;1873;-52
2023/07/09 09:58:54;;;;;;;;;;;;;;;27.71;43.44;95618.28;5095992;28;984;-52
2023/07/09 10:01:25;;;;;;;;;;;;;;;27.95;40.22;95629.84;5096041;28;1052;-52
2023/07/09 10:03:54;;;;;;;;;;;;;;;28.07;40.26;95627.75;5096058;28;977;-52
2023/07/09 10:06:27;;;;;;;;;;;;;;;28.16;38.22;95639.94;5095626;28;1930;-52
2023/07/09 10:09:12;;;;;;;;;;;;;;;28.22;40.58;95625.13;5095826;28;1043;-52
2023/07/09 10:11:45;;;;;;;;;;;;;;;28.16;39.44;95622.59;5095615;28;1030;-52
2023/07/09 10:14:31;;;;;;;;;;;;;;;28.14;39.30;95613.78;5095698;28;981;-52
2023/07/09 10:17:00;;;;;;;;;;;;;;;27.94;40.39;95615.25;5085056;28;1941;-52
2023/07/09 10:19:55;;;;;;;;;;;;;;;28.03;37.37;95621.94;5095482;28;989;-52
2023/07/09 10:22:36;;;;;;;;;;;;;;;28.06;39.22;95612.34;5040643;28;1118;-52
2023/07/09 10:25:10;;;;;;;;;;;;;;;28.27;40.54;95604.25;5095411;28;1240;-52
2023/07/09 10:27:44;;;;;;;;;;;;;;;28.28;38.41;95609.50;5095233;28;1902;-52
2023/07/09 10:30:26;;;;;;;;;;;;;;;28.29;38.12;95615.84;5095015;28;1044;-52
2023/07/09 10:33:01;;;;;;;;;;;;;;;28.41;41.30;95598.06;5095305;28;1116;-52
2023/07/09 10:35:59;;;;;;;;;;;;;;;28.53;41.24;95591.59;5095338;28;1020;-52
2023/07/09 10:38:46;;;;;;;;;;;;;;;28.50;38.89;95595.66;5061269;28;1252;-52
2023/07/09 10:41:13;;;;;;;;;;;;;;;28.32;41.46;95588.63;5095330;28;1055;-52
2023/07/09 10:44:00;;;;;;;;;;;;;;;28.21;39.62;95589.66;5095256;28;1000;-52
2023/07/09 10:46:29;;;;;;;;;;;;;;;28.21;40.06;95587.75;5094924;28;1918;-52
2023/07/09 10:48:56;;;;;;;;;;;;;;;28.20;39.96;95577.84;5094990;28;1032;-52
2023/07/09 10:51:28;;;;;;;;;;;;;;;28.27;41.50;95576.78;5094693;28;977;-52
2023/07/09 10:54:13;;;;;;;;;;;;;;;28.21;41.61;95582.25;5095071;28;1008;-52
2023/07/09 10:56:39;;;;;;;;;;;;;;;28.11;39.60;95586.81;5094905;28;984;-52
2023/07/09 10:59:14;;;;;;;;;;;;;;;28.13;39.90;95577.22;5094847;28;1020;-52
2023/07/09 11:01:42;;;;;;;;;;;;;;;28.20;40.44;95569.59;5094650;28;1121;-52
2023/07/09 11:04:31;;;;;;;;;;;;;;;28.38;40.58;95578.50;5094859;28;1132;-52
2023/07/09 11:07:00;;;;;;;;;;;;;;;28.36;39.41;95567.81;5086482;28;2011;-52
2023/07/09 11:09:29;;;;;;;;;;;;;;;28.29;39.08;95569.13;5094544;28;1028;-52
2023/07/09 11:11:57;;;;;;;;;;;;;;;28.19;39.61;95567.09;5094515;28;991;-52
2023/07/09 11:14:27;;;;;;;;;;;;;;;28.26;39.05;95575.94;5093415;28;1024;-52
2023/07/09 11:16:55;;;;;;;;;;;;;;;28.28;40.64;95575.69;5094561;28;965;-52
2023/07/09 11:19:21;;;;;;;;;;;;;;;28.29;39.90;95567.19;5094556;28;981;-52
2023/07/09 11:22:11;;;;;;;;;;;;;;;28.15;40.21;95563.22;5094456;28;1056;-52
2023/07/09 11:24:46;;;;;;;;;;;;;;;28.26;38.13;95573.19;5094238;28;1688;-52
2023/07/09 11:27:17;;;;;;;;;;;;;;;28.31;41.92;95555.94;5094007;28;1937;-52
2023/07/09 11:29:47;;;;;;;;;;;;;;;28.26;40.56;95559.47;5094438;28;1037;-52
2023/07/09 11:32:21;;;;;;;;;;;;;;;28.35;41.22;95554.31;5094402;28;1063;-52
2023/07/09 11:34:47;;;;;;;;;;;;;;;28.45;40.88;95548.06;5094334;28;984;-52
2023/07/09 11:37:14;;;;;;;;;;;;;;;28.46;39.73;95557.94;5094131;28;1595;-52
2023/07/09 11:39:40;;;;;;;;;;;;;;;28.47;40.47;95549.44;5094418;28;1032;-53
2023/07/09 11:42:24;;;;;;;;;;;;;;;28.47;40.50;95541.19;5093769;28;1048;-52
2023/07/09 11:44:53;;;;;;;;;;;;;;;28.51;41.21;95549.72;5094118;28;1008;-53
2023/07/09 11:47:22;;;;;;;;;;;;;;;28.43;40.29;95542.81;5093912;28;1918;-52
2023/07/09 11:49:54;;;;;;;;;;;;;;;28.49;41.14;95539.00;5093958;28;1637;-52
2023/07/09 11:52:25;;;;;;;;;;;;;;;28.53;40.37;95544.81;5094090;28;966;-52
2023/07/09 11:54:51;;;;;;;;;;;;;;;28.58;41.13;95542.13;5094036;28;1116;-52
2023/07/09 11:57:17;;;;;;;;;;;;;;;28.65;40.35;95542.72;5093910;28;1047;-52
2023/07/09 11:59:44;;;;;;;;;;;;;;;28.68;40.47;95544.09;5093890;28;1024;-52
2023/07/09 12:02:17;;;;;;;;;;;;;;;28.67;38.69;95546.03;5093683;28;1031;-52
2023/07/09 12:04:44;;;;;;;;;;;;;;;28.74;39.67;95541.13;5093977;28;980;-52
2023/07/09 12:07:13;;;;;;;;;;;;;;;28.74;38.93;95545.78;5093798;28;1983;-53
2023/07/09 12:09:41;;;;;;;;;;;;;;;28.77;39.46;95537.81;5093802;28;1048;-52
2023/07/09 12:12:23;;;;;;;;;;;;;;;28.75;39.61;95547.44;5093661;28;1894;-52
2023/07/09 12:14:49;;;;;;;;;;;;;;;28.71;40.38;95536.16;5093602;28;1040;-52
2023/07/09 12:17:15;;;;;;;;;;;;;;;28.65;37.71;95542.72;5093775;28;1016;-53
2023/07/09 12:19:41;;;;;;;;;;;;;;;28.71;41.70;95533.41;5093604;28;1080;-53
2023/07/09 12:22:14;;;;;;;;;;;;;;;28.75;40.70;95522.69;5093532;28;1060;-52
2023/07/09 12:24:42;;;;;;;;;;;;;;;28.86;39.19;95529.06;5093464;28;1641;-53
2023/07/09 12:27:22;;;;;;;;;;;;;;;28.88;39.72;95521.38;5093222;28;1914;-53
2023/07/09 12:29:50;;;;;;;;;;;;;;;28.88;40.00;95524.13;5093781;28;1051;-53
2023/07/09 12:32:17;;;;;;;;;;;;;;;28.72;37.62;95517.69;5093334;28;1056;-53
2023/07/09 12:34:53;;;;;;;;;;;;;;;28.66;40.53;95505.03;5093503;28;1005;-52
2023/07/09 12:37:22;;;;;;;;;;;;;;;28.62;38.48;95519.31;5093420;28;984;-52
2023/07/09 12:39:51;;;;;;;;;;;;;;;28.71;40.15;95513.31;5093880;28;957;-53
2023/07/09 12:42:18;;;;;;;;;;;;;;;28.62;40.93;95494.53;5093038;28;1049;-52
2023/07/09 12:44:47;;;;;;;;;;;;;;;28.59;39.99;95500.59;5093253;28;1029;-53
2023/07/09 12:47:14;;;;;;;;;;;;;;;28.67;40.64;95502.00;5093278;28;1990;-52
2023/07/09 12:49:42;;;;;;;;;;;;;;;28.75;39.00;95506.19;5093197;28;1123;-53
2023/07/09 12:52:14;;;;;;;;;;;;;;;28.73;38.82;95508.38;5093283;28;1056;-52
2023/07/09 12:54:40;;;;;;;;;;;;;;;28.56;39.45;95503.88;5095855;28;1096;-52
2023/07/09 12:57:13;;;;;;;;;;;;;;;28.52;39.05;95500.00;5097438;28;1047;-53
2023/07/09 12:59:41;;;;;;;;;;;;;;;28.67;40.20;95495.69;5097240;28;1048;-53
2023/07/09 13:02:18;;;;;;;;;;;;;;;28.70;39.24;95503.38;5097133;28;1041;-52
2023/07/09 13:04:44;;;;;;;;;;;;;;;28.75;38.71;95498.75;5097157;28;1004;-53
2023/07/09 13:07:29;;;;;;;;;;;;;;;28.67;39.31;95501.19;5096886;28;2002;-53